Time;durP1;ratioP1;P1;durP2;ratioP2;P2;SDS_P1;SDS_P2;PMS_P1;PMS_P2;Temp;Humidity;BMP_temperature;BMP_pressure;BME280_temperature;BME280_humidity;BME280_pressure;Samples;Min_cycle;Max_cycle;Signal;HPM_P1;HPM_P2
2024/01/31 00:01:44;;;;;;;5.40;1.27;;;;;;;3.90;100.00;103597.09;5095162;28;20503;-78
2024/01/31 00:04:10;;;;;;;7.78;1.55;;;;;;;3.92;100.00;103597.06;5077299;28;20028;-77
2024/01/31 00:06:35;;;;;;;5.43;1.25;;;;;;;3.92;100.00;103592.66;5095199;28;20038;-77
2024/01/31 00:09:00;;;;;;;6.28;1.23;;;;;;;3.93;100.00;103598.81;5095209;28;20495;-77
2024/01/31 00:11:30;;;;;;;3.20;1.40;;;;;;;3.92;100.00;103597.94;5094751;28;20032;-76
2024/01/31 00:13:56;;;;;;;7.53;1.27;;;;;;;3.91;100.00;103597.97;5076708;28;20032;-78
2024/01/31 00:16:21;;;;;;;4.28;0.95;;;;;;;3.91;100.00;103605.88;5076916;28;20132;-77
2024/01/31 00:18:47;;;;;;;4.82;0.90;;;;;;;3.95;100.00;103600.50;5095218;28;20452;-77
2024/01/31 00:21:12;;;;;;;4.55;0.93;;;;;;;3.97;100.00;103590.81;5095622;28;20039;-77
2024/01/31 00:23:37;;;;;;;4.55;1.20;;;;;;;4.00;100.00;103588.13;5095107;28;20384;-78
2024/01/31 00:26:03;;;;;;;13.55;1.40;;;;;;;4.01;100.00;103595.13;5094992;28;20047;-78
2024/01/31 00:28:28;;;;;;;4.32;0.75;;;;;;;4.03;100.00;103595.09;5094379;28;20078;-77
2024/01/31 00:30:54;;;;;;;4.25;0.90;;;;;;;4.02;100.00;103593.38;5093558;28;20063;-77
2024/01/31 00:33:19;;;;;;;5.28;1.33;;;;;;;4.02;100.00;103590.75;5076051;28;20032;-78
2024/01/31 00:35:44;;;;;;;7.82;1.13;;;;;;;3.98;100.00;103597.81;5076638;28;20559;-79
2024/01/31 00:38:10;;;;;;;4.53;0.98;;;;;;;3.95;100.00;103597.88;5094638;28;20472;-77
2024/01/31 00:40:35;;;;;;;4.65;0.90;;;;;;;3.96;100.00;103598.75;5094517;28;20032;-77
2024/01/31 00:43:00;;;;;;;3.63;1.10;;;;;;;4.00;100.00;103589.88;5094783;28;20044;-77
2024/01/31 00:45:29;;;;;;;3.72;0.80;;;;;;;4.05;100.00;103590.69;5094065;28;20043;-78
2024/01/31 00:47:55;;;;;;;6.93;0.90;;;;;;;4.07;100.00;103591.50;5076631;28;20036;-76
2024/01/31 00:50:20;;;;;;;4.60;0.98;;;;;;;4.10;100.00;103591.44;5076680;28;20085;-79
2024/01/31 00:52:46;;;;;;;12.30;1.27;;;;;;;4.13;100.00;103580.84;5094614;28;20032;-76
2024/01/31 00:55:11;;;;;;;3.05;0.80;;;;;;;4.18;100.00;103588.66;5076170;28;20552;-79
2024/01/31 00:57:36;;;;;;;3.80;1.10;;;;;;;4.20;100.00;103579.81;5094454;28;20032;-77
2024/01/31 01:00:05;;;;;;;1.95;0.90;;;;;;;4.16;100.00;103566.75;5094542;28;20035;-77
2024/01/31 01:02:31;;;;;;;1.45;0.80;;;;;;;4.21;100.00;103578.06;5094254;28;20349;-76
2024/01/31 01:04:56;;;;;;;5.20;1.00;;;;;;;4.24;100.00;103572.75;5094090;28;20460;-77
2024/01/31 01:07:22;;;;;;;3.10;0.75;;;;;;;4.25;100.00;103569.19;5093706;28;20085;-78
2024/01/31 01:09:47;;;;;;;5.32;0.88;;;;;;;4.25;100.00;103574.47;5075814;28;20381;-78
2024/01/31 01:12:12;;;;;;;1.73;0.40;;;;;;;4.26;100.00;103568.31;5093797;28;20067;-78
2024/01/31 01:14:38;;;;;;;1.70;0.60;;;;;;;4.22;100.00;103562.25;5075437;28;20095;-78
2024/01/31 01:17:04;;;;;;;2.13;0.68;;;;;;;4.21;100.00;103568.41;5075510;28;20380;-77
2024/01/31 01:19:29;;;;;;;1.40;0.50;;;;;;;4.20;100.00;103566.66;5075959;28;20115;-78
2024/01/31 01:21:54;;;;;;;0.40;0.40;;;;;;;4.24;100.00;103563.06;5093895;28;20026;-77
2024/01/31 01:24:20;;;;;;;2.38;0.75;;;;;;;4.31;100.00;103557.66;5075456;28;20044;-77
2024/01/31 01:26:45;;;;;;;3.30;0.60;;;;;;;4.37;100.00;103563.69;5093936;28;20032;-77
2024/01/31 01:29:10;;;;;;;1.23;0.40;;;;;;;4.42;100.00;103553.03;5093368;28;20531;-78
2024/01/31 01:31:36;;;;;;;5.07;0.95;;;;;;;4.41;100.00;103561.84;5093422;28;20533;-78
2024/01/31 01:34:01;;;;;;;1.83;0.57;;;;;;;4.48;100.00;103546.75;5075424;28;20051;-78
2024/01/31 01:36:26;;;;;;;10.98;1.05;;;;;;;4.49;100.00;103543.22;5093703;28;20036;-77
2024/01/31 01:38:52;;;;;;;1.63;0.60;;;;;;;4.47;100.00;103545.88;5075412;28;20024;-77
2024/01/31 01:41:17;;;;;;;1.17;0.60;;;;;;;4.47;100.00;103547.66;5093092;28;20043;-77
2024/01/31 01:43:43;;;;;;;1.63;0.63;;;;;;;4.48;100.00;103546.75;5093149;28;20043;-78
2024/01/31 01:46:11;;;;;;;2.75;0.88;;;;;;;4.47;100.00;103542.41;5093605;28;20036;-78
2024/01/31 01:48:37;;;;;;;3.95;0.85;;;;;;;4.50;100.00;103550.25;5093072;28;20472;-78
2024/01/31 01:51:02;;;;;;;7.68;0.73;;;;;;;4.50;100.00;103547.59;5093155;28;20086;-78
2024/01/31 01:53:31;;;;;;;2.58;0.93;;;;;;;4.47;100.00;103545.88;5093369;28;20024;-77
2024/01/31 01:55:57;;;;;;;5.70;1.00;;;;;;;4.46;100.00;103545.91;5093681;28;20032;-77
2024/01/31 01:58:23;;;;;;;3.00;0.60;;;;;;;4.46;100.00;103546.78;5075359;28;20036;-78
2024/01/31 02:00:49;;;;;;;1.77;0.65;;;;;;;4.47;100.00;103545.88;5093000;28;20032;-77
2024/01/31 02:03:16;;;;;;;6.90;1.20;;;;;;;4.47;100.00;103542.41;5093345;28;20398;-79
2024/01/31 02:05:45;;;;;;;2.22;0.73;;;;;;;4.47;100.00;103539.75;5093287;28;20086;-77
2024/01/31 02:08:11;;;;;;;5.47;0.90;;;;;;;4.48;100.00;103544.09;5093302;28;20473;-78
2024/01/31 02:10:36;;;;;;;3.33;1.17;;;;;;;4.48;100.00;103537.09;5093654;28;20068;-77
2024/01/31 02:13:02;;;;;;;1.20;0.70;;;;;;;4.46;100.00;103530.09;5074883;28;20118;-78
2024/01/31 02:15:27;;;;;;;1.38;0.80;;;;;;;4.40;100.00;103521.44;5093090;28;20039;-78
2024/01/31 02:17:53;;;;;;;2.72;1.05;;;;;;;4.35;100.00;103518.03;5093374;28;20118;-78
2024/01/31 02:20:18;;;;;;;3.33;1.17;;;;;;;4.34;100.00;103520.69;5093121;28;20056;-77
2024/01/31 02:22:47;;;;;;;4.50;0.93;;;;;;;4.30;100.00;103521.66;5074941;28;20118;-77
2024/01/31 02:25:14;;;;;;;4.57;0.95;;;;;;;4.26;100.00;103527.91;5074760;28;20036;-77
2024/01/31 02:27:40;;;;;;;2.83;1.25;;;;;;;4.23;100.00;103529.69;5092976;28;20036;-77
2024/01/31 02:30:09;;;;;;;1.23;1.00;;;;;;;4.24;100.00;103522.66;5092952;28;20032;-78
2024/01/31 02:32:34;;;;;;;3.10;0.98;;;;;;;4.21;100.00;103514.78;5092872;28;20125;-78
2024/01/31 02:34:59;;;;;;;2.75;1.10;;;;;;;4.15;100.00;103510.53;5092970;28;20064;-80
2024/01/31 02:37:25;;;;;;;3.80;1.00;;;;;;;4.12;100.00;103507.09;5091330;28;20047;-81
2024/01/31 02:39:50;;;;;;;5.40;1.23;;;;;;;4.09;100.00;103499.25;5091363;28;20028;-81
2024/01/31 02:42:16;;;;;;;1.40;1.00;;;;;;;4.05;100.00;103506.38;5091624;28;20036;-81
2024/01/31 02:44:41;;;;;;;3.10;0.90;;;;;;;4.02;100.00;103504.66;5073582;28;20039;-81
2024/01/31 02:47:06;;;;;;;3.47;1.10;;;;;;;4.01;100.00;103502.91;5091447;28;20169;-81
2024/01/31 02:49:32;;;;;;;4.00;1.10;;;;;;;4.00;100.00;103509.09;5073603;28;20032;-81
2024/01/31 02:51:57;;;;;;;3.28;1.00;;;;;;;3.99;100.00;103506.50;5091382;28;20080;-81
2024/01/31 02:54:22;;;;;;;2.00;1.08;;;;;;;3.95;100.00;103494.28;5092810;28;20051;-81
2024/01/31 02:56:48;;;;;;;1.20;0.80;;;;;;;3.94;100.00;103488.16;5095259;28;20072;-81
2024/01/31 02:59:13;;;;;;;6.43;1.00;;;;;;;3.92;100.00;103491.69;5095691;28;20146;-81
2024/01/31 03:01:49;;;;;;;7.50;1.30;;;;;;;3.88;100.00;103483.88;5095279;28;20101;-81
2024/01/31 03:04:15;;;;;;;4.07;1.23;;;;;;;3.86;100.00;103488.28;5095120;28;20028;-81
2024/01/31 03:06:40;;;;;;;4.93;1.40;;;;;;;3.85;100.00;103483.03;5076257;28;20047;-82
2024/01/31 03:09:05;;;;;;;4.15;0.90;;;;;;;3.82;100.00;103481.34;5095077;28;20039;-81
2024/01/31 03:11:31;;;;;;;2.53;1.00;;;;;;;3.78;100.00;103477.03;5095391;28;20146;-85
2024/01/31 03:13:56;;;;;;;2.50;1.25;;;;;;;3.78;100.00;103482.31;5060359;28;20420;-81
2024/01/31 03:16:22;;;;;;;3.10;0.80;;;;;;;3.75;100.00;103484.13;5094810;28;20035;-81
2024/01/31 03:18:47;;;;;;;4.32;1.38;;;;;;;3.74;100.00;103471.88;5077376;28;20034;-81
2024/01/31 03:21:12;;;;;;;3.78;1.40;;;;;;;3.74;100.00;103474.50;5095043;28;20028;-81
2024/01/31 03:23:38;;;;;;;2.63;1.20;;;;;;;3.73;100.00;103476.25;5095108;28;20109;-81
2024/01/31 03:26:03;;;;;;;5.03;1.10;;;;;;;3.73;100.00;103483.28;5076838;28;20034;-81
2024/01/31 03:28:29;;;;;;;7.38;1.38;;;;;;;3.72;100.00;103487.69;5094831;28;20115;-80
2024/01/31 03:30:54;;;;;;;2.70;1.30;;;;;;;3.73;100.00;103492.03;5059934;28;20383;-81
2024/01/31 03:33:19;;;;;;;7.10;1.10;;;;;;;3.73;100.00;103488.56;5094884;28;20059;-80
2024/01/31 03:35:45;;;;;;;8.25;1.50;;;;;;;3.71;100.00;103486.81;5076392;28;20134;-82
2024/01/31 03:38:10;;;;;;;2.97;1.15;;;;;;;3.72;100.00;103485.06;5076520;28;20047;-81
2024/01/31 03:40:36;;;;;;;1.77;1.17;;;;;;;3.70;100.00;103481.56;5094557;28;20032;-82
2024/01/31 03:43:02;;;;;;;3.58;1.83;;;;;;;3.69;100.00;103480.72;5076045;28;20117;-81
2024/01/31 03:45:27;;;;;;;12.52;1.35;;;;;;;3.71;100.00;103483.31;5094315;28;20062;-80
2024/01/31 03:47:53;;;;;;;4.90;1.45;;;;;;;3.70;100.00;103471.03;5094305;28;20106;-81
2024/01/31 03:50:19;;;;;;;3.30;1.20;;;;;;;3.70;100.00;103471.03;5094349;28;20435;-80
2024/01/31 03:52:45;;;;;;;3.63;1.30;;;;;;;3.70;100.00;103473.66;5094061;28;20040;-81
2024/01/31 03:55:11;;;;;;;5.85;1.55;;;;;;;3.68;100.00;103476.34;5094162;28;20031;-80
2024/01/31 03:57:37;;;;;;;2.60;1.30;;;;;;;3.68;100.00;103472.84;5075880;28;20467;-84
2024/01/31 04:00:08;;;;;;;7.72;1.40;;;;;;;3.69;100.00;103474.59;5094558;28;20089;-80
2024/01/31 04:02:34;;;;;;;5.05;1.58;;;;;;;3.70;100.00;103476.31;5094584;28;20117;-81
2024/01/31 04:05:00;;;;;;;7.38;1.90;;;;;;;3.73;100.00;103485.91;5093815;28;20067;-80
2024/01/31 04:07:27;;;;;;;3.83;1.90;;;;;;;3.76;100.00;103477.97;5094047;28;20064;-81
2024/01/31 04:09:52;;;;;;;3.63;1.80;;;;;;;3.79;100.00;103485.78;5093908;28;20028;-80
2024/01/31 04:12:18;;;;;;;2.25;1.67;;;;;;;3.78;100.00;103487.56;5093574;28;20102;-80
2024/01/31 04:14:43;;;;;;;6.70;1.85;;;;;;;3.79;100.00;103478.78;5075618;28;20039;-81
2024/01/31 04:17:08;;;;;;;3.03;2.25;;;;;;;3.81;100.00;103476.97;5075624;28;20039;-81
2024/01/31 04:19:33;;;;;;;2.90;1.90;;;;;;;3.89;100.00;103475.03;5093966;28;20077;-81
2024/01/31 04:21:59;;;;;;;2.25;1.80;;;;;;;3.99;100.00;103469.59;5093538;28;20082;-81
2024/01/31 04:24:24;;;;;;;2.53;1.63;;;;;;;4.03;100.00;103464.25;5093765;28;20460;-81
2024/01/31 04:26:49;;;;;;;2.67;1.90;;;;;;;4.06;100.00;103465.91;5075619;28;20036;-81
2024/01/31 04:29:18;;;;;;;2.38;1.90;;;;;;;4.09;100.00;103467.63;5075509;28;20032;-81
2024/01/31 04:31:43;;;;;;;2.42;1.70;;;;;;;4.14;100.00;103463.16;5075996;28;20040;-82
2024/01/31 04:34:09;;;;;;;4.75;1.75;;;;;;;4.18;100.00;103465.69;5093100;28;20036;-81
2024/01/31 04:36:34;;;;;;;3.05;1.77;;;;;;;4.25;100.00;103461.13;5093449;28;20123;-81
2024/01/31 04:39:00;;;;;;;4.57;1.60;;;;;;;4.32;100.00;103459.25;5075386;28;20036;-82
2024/01/31 04:41:26;;;;;;;2.00;1.60;;;;;;;4.32;100.00;103456.59;5094041;28;20032;-82
2024/01/31 04:43:53;;;;;;;6.90;2.00;;;;;;;4.33;100.00;103455.69;5093448;28;20118;-81
2024/01/31 04:46:19;;;;;;;2.45;2.03;;;;;;;4.33;100.00;103453.03;5075327;28;20477;-81
2024/01/31 04:48:44;;;;;;;5.85;1.92;;;;;;;4.30;100.00;103450.47;5094058;28;20031;-82
2024/01/31 04:51:10;;;;;;;3.95;2.20;;;;;;;4.28;100.00;103447.03;5075558;28;20032;-81
2024/01/31 04:53:35;;;;;;;4.28;1.88;;;;;;;4.27;100.00;103455.81;5075452;28;20032;-81
2024/01/31 04:56:00;;;;;;;1.92;1.48;;;;;;;4.25;100.00;103463.75;5093479;28;20032;-81
2024/01/31 04:58:26;;;;;;;2.40;1.90;;;;;;;4.22;100.00;103464.72;5093389;28;20090;-81
2024/01/31 05:00:51;;;;;;;3.05;1.88;;;;;;;4.24;100.00;103459.41;5094073;28;20059;-81
2024/01/31 05:03:16;;;;;;;3.33;2.00;;;;;;;4.26;100.00;103460.22;5093589;28;20115;-82
2024/01/31 05:05:42;;;;;;;3.53;1.55;;;;;;;4.27;100.00;103451.44;5094059;28;20043;-83
2024/01/31 05:08:08;;;;;;;2.05;1.85;;;;;;;4.31;100.00;103447.81;5094040;28;20123;-82
2024/01/31 05:10:34;;;;;;;1.80;1.70;;;;;;;4.33;100.00;103448.66;5093925;28;20084;-83
2024/01/31 05:13:00;;;;;;;1.98;1.80;;;;;;;4.40;100.00;103452.00;5076028;28;20036;-83
2024/01/31 05:15:25;;;;;;;2.97;1.80;;;;;;;4.41;100.00;103444.06;5093247;28;20093;-83
2024/01/31 05:17:51;;;;;;;3.70;2.20;;;;;;;4.40;100.00;103457.28;5092661;28;20549;-83
2024/01/31 05:20:16;;;;;;;2.42;2.22;;;;;;;4.39;100.00;103461.69;5093494;28;20047;-82
2024/01/31 05:22:42;;;;;;;3.47;2.70;;;;;;;4.37;100.00;103460.00;5092133;28;20029;-83
2024/01/31 05:25:08;;;;;;;2.63;2.20;;;;;;;4.34;100.00;103449.50;5093071;28;20032;-83
2024/01/31 05:27:35;;;;;;;5.90;2.22;;;;;;;4.33;100.00;103447.78;5092452;28;20028;-81
2024/01/31 05:30:01;;;;;;;2.83;2.20;;;;;;;4.32;100.00;103430.25;5092646;28;20051;-83
2024/01/31 05:32:26;;;;;;;4.47;2.58;;;;;;;4.32;100.00;103420.56;5092532;28;20032;-83
2024/01/31 05:34:52;;;;;;;4.78;2.80;;;;;;;4.32;100.00;103411.78;5074399;28;20464;-84
2024/01/31 05:37:17;;;;;;;3.13;2.78;;;;;;;4.30;100.00;103403.03;5092608;28;20368;-82
2024/01/31 05:39:42;;;;;;;3.30;3.00;;;;;;;4.24;100.00;103397.00;5074515;28;20028;-83
2024/01/31 05:42:08;;;;;;;4.95;3.60;;;;;;;4.26;100.00;103396.13;5092700;28;20483;-83
2024/01/31 05:44:33;;;;;;;7.18;3.28;;;;;;;4.22;100.00;103396.19;5093114;28;20056;-82
2024/01/31 05:46:58;;;;;;;7.40;3.17;;;;;;;4.20;100.00;103386.59;5092742;28;20032;-83
2024/01/31 05:49:24;;;;;;;7.35;3.65;;;;;;;4.22;100.00;103374.22;5092694;28;20447;-83
2024/01/31 05:51:51;;;;;;;4.68;3.42;;;;;;;4.22;100.00;103374.22;5092533;28;20085;-82
2024/01/31 05:54:16;;;;;;;7.15;3.45;;;;;;;4.21;100.00;103383.91;5074222;28;20387;-83
2024/01/31 05:56:42;;;;;;;5.55;3.40;;;;;;;4.22;100.00;103387.41;5074956;28;20093;-80
2024/01/31 05:59:08;;;;;;;4.47;2.97;;;;;;;4.20;100.00;103378.69;5092256;28;20108;-82
2024/01/31 06:01:34;;;;;;;4.78;3.30;;;;;;;4.18;100.00;103381.34;5074718;28;20365;-83
2024/01/31 06:04:00;;;;;;;4.97;3.03;;;;;;;4.17;100.00;103390.16;5092401;28;20115;-83
2024/01/31 06:06:25;;;;;;;8.80;3.50;;;;;;;4.17;100.00;103407.75;5092684;28;20028;-83
2024/01/31 06:08:50;;;;;;;6.05;3.72;;;;;;;4.17;100.00;103405.09;5074162;28;20068;-81
2024/01/31 06:11:16;;;;;;;6.43;3.58;;;;;;;4.19;100.00;103419.09;5092081;28;20036;-83
2024/01/31 06:13:41;;;;;;;5.05;3.20;;;;;;;4.17;100.00;103419.13;5092235;28;20035;-83
2024/01/31 06:16:07;;;;;;;3.72;3.17;;;;;;;4.18;100.00;103425.25;5092246;28;20028;-83
2024/01/31 06:18:34;;;;;;;7.72;3.10;;;;;;;4.19;100.00;103440.19;5091949;28;20458;-83
2024/01/31 06:21:00;;;;;;;4.53;2.67;;;;;;;4.23;100.00;103445.34;5091942;28;20362;-82
2024/01/31 06:23:29;;;;;;;7.63;2.60;;;;;;;4.32;100.00;103440.78;5092454;28;20147;-82
2024/01/31 06:25:55;;;;;;;5.13;2.47;;;;;;;4.35;100.00;103448.63;5092468;28;20058;-82
2024/01/31 06:28:20;;;;;;;3.70;2.40;;;;;;;4.38;100.00;103452.03;5075449;28;20472;-82
2024/01/31 06:30:48;;;;;;;3.95;2.60;;;;;;;4.41;100.00;103466.94;5096652;28;20032;-82
2024/01/31 06:33:14;;;;;;;2.58;2.15;;;;;;;4.45;100.00;103471.25;5095946;28;20123;-82
2024/01/31 06:35:47;;;;;;;3.40;2.47;;;;;;;4.46;100.00;103478.22;5095723;28;20024;-82
2024/01/31 06:38:12;;;;;;;5.68;2.78;;;;;;;4.44;100.00;103476.56;5077945;28;20032;-82
2024/01/31 06:40:38;;;;;;;4.63;2.63;;;;;;;4.45;100.00;103488.81;5095535;28;20047;-83
2024/01/31 06:43:03;;;;;;;6.38;2.97;;;;;;;4.47;100.00;103493.16;5095589;28;20115;-81
2024/01/31 06:45:29;;;;;;;12.23;3.42;;;;;;;4.46;100.00;103499.31;5060978;28;20040;-85
2024/01/31 06:47:54;;;;;;;5.45;2.40;;;;;;;4.48;100.00;103504.56;5077515;28;20044;-81
2024/01/31 06:50:20;;;;;;;6.30;2.75;;;;;;;4.51;100.00;103504.50;5076912;28;20032;-79
2024/01/31 06:52:46;;;;;;;5.47;2.60;;;;;;;4.53;100.00;103498.28;5077295;28;20028;-80
2024/01/31 06:55:13;;;;;;;4.75;3.10;;;;;;;4.52;100.00;103495.69;5095144;28;20108;-83
2024/01/31 06:57:38;;;;;;;3.53;2.90;;;;;;;4.50;100.00;103497.50;5077013;28;20432;-82
2024/01/31 07:00:11;;;;;;;5.53;2.75;;;;;;;4.49;100.00;103498.41;5095245;28;20036;-84
2024/01/31 07:02:38;;;;;;;5.28;3.20;;;;;;;4.46;100.00;103493.19;5095087;28;20047;-81
2024/01/31 07:05:04;;;;;;;3.78;2.95;;;;;;;4.44;100.00;103490.59;5094860;28;20040;-82
2024/01/31 07:07:30;;;;;;;7.00;3.33;;;;;;;4.45;100.00;103484.44;5095053;28;20147;-82
2024/01/31 07:09:55;;;;;;;5.80;2.92;;;;;;;4.46;100.00;103488.78;5076989;28;20113;-82
2024/01/31 07:12:20;;;;;;;7.03;2.97;;;;;;;4.45;100.00;103483.53;5095275;28;20024;-83
2024/01/31 07:14:46;;;;;;;8.13;2.78;;;;;;;4.44;100.00;103490.59;5077317;28;20047;-84
2024/01/31 07:17:11;;;;;;;4.38;2.85;;;;;;;4.44;100.00;103484.47;5095371;28;20123;-83
2024/01/31 07:19:42;;;;;;;7.50;3.00;;;;;;;4.45;100.00;103484.44;5094985;28;20047;-82
2024/01/31 07:22:08;;;;;;;4.68;2.90;;;;;;;4.47;100.00;103492.31;5094670;28;20047;-82
2024/01/31 07:24:34;;;;;;;3.83;2.75;;;;;;;4.52;100.00;103501.84;5059544;28;20048;-85
2024/01/31 07:27:00;;;;;;;4.95;2.67;;;;;;;4.55;100.00;103498.25;5076127;28;20032;-81
2024/01/31 07:29:25;;;;;;;3.42;2.58;;;;;;;4.54;100.00;103507.94;5094355;28;20387;-82
2024/01/31 07:31:51;;;;;;;4.68;2.65;;;;;;;4.54;100.00;103507.94;5094257;28;20705;-81
2024/01/31 07:34:16;;;;;;;6.05;2.60;;;;;;;4.54;100.00;103507.09;5094282;28;20042;-82
2024/01/31 07:36:42;;;;;;;4.45;2.40;;;;;;;4.57;100.00;103507.00;5094384;28;20093;-82
2024/01/31 07:39:07;;;;;;;2.97;2.28;;;;;;;4.59;100.00;103500.78;5094081;28;20024;-81
2024/01/31 07:41:35;;;;;;;5.03;2.92;;;;;;;4.63;100.00;103500.72;5094462;28;20376;-83
2024/01/31 07:44:01;;;;;;;5.15;2.40;;;;;;;4.63;100.00;103495.44;5094716;28;20051;-79
2024/01/31 07:46:26;;;;;;;5.07;2.70;;;;;;;4.63;100.00;103484.88;5095548;28;20032;-83
2024/01/31 07:48:52;;;;;;;5.65;2.95;;;;;;;4.64;100.00;103486.63;5077453;28;20043;-81
2024/01/31 07:51:18;;;;;;;4.95;2.70;;;;;;;4.61;100.00;103474.38;5096946;28;20043;-83
2024/01/31 07:53:43;;;;;;;4.30;2.67;;;;;;;4.57;100.00;103481.50;5097375;28;20036;-82
2024/01/31 07:56:09;;;;;;;4.82;2.50;;;;;;;4.57;100.00;103476.22;5096309;28;20456;-84
2024/01/31 07:58:34;;;;;;;5.20;3.03;;;;;;;4.55;100.00;103466.59;5094565;28;20051;-83
2024/01/31 08:01:00;;;;;;;5.70;2.92;;;;;;;4.53;100.00;103458.72;5094244;28;20058;-84
2024/01/31 08:03:25;;;;;;;4.78;2.80;;;;;;;4.54;100.00;103459.63;5094226;28;20455;-82
2024/01/31 08:05:51;;;;;;;4.45;2.90;;;;;;;4.52;100.00;103457.03;5094225;28;20484;-86
2024/01/31 08:08:16;;;;;;;7.35;3.08;;;;;;;4.55;100.00;103453.44;5075954;28;20119;-84
2024/01/31 08:10:42;;;;;;;7.18;3.28;;;;;;;4.53;100.00;103456.09;5094281;28;20038;-83
2024/01/31 08:13:07;;;;;;;8.40;3.33;;;;;;;4.54;100.00;103439.38;5093392;28;20028;-84
2024/01/31 08:15:34;;;;;;;7.82;3.55;;;;;;;4.55;100.00;103435.84;5093378;28;20522;-81
2024/01/31 08:18:00;;;;;;;7.82;3.63;;;;;;;4.55;100.00;103422.66;5093985;28;20062;-80
2024/01/31 08:20:26;;;;;;;10.23;4.15;;;;;;;4.58;100.00;103416.44;5058887;28;20559;-81
2024/01/31 08:22:51;;;;;;;10.32;3.90;;;;;;;4.58;100.00;103412.03;5093409;28;20119;-82
2024/01/31 08:25:17;;;;;;;5.88;3.15;;;;;;;4.64;100.00;103413.66;5094210;28;20029;-82
2024/01/31 08:27:42;;;;;;;6.18;3.30;;;;;;;4.73;100.00;103409.91;5075892;28;20063;-81
2024/01/31 08:30:08;;;;;;;5.72;4.03;;;;;;;4.79;100.00;103401.84;5093897;28;20075;-83
2024/01/31 08:32:34;;;;;;;7.38;3.42;;;;;;;4.81;100.00;103392.13;5075200;28;20085;-81
2024/01/31 08:35:01;;;;;;;6.07;3.30;;;;;;;4.86;100.00;103395.50;5093522;28;20036;-81
2024/01/31 08:37:27;;;;;;;4.80;3.50;;;;;;;4.92;100.00;103390.06;5093520;28;20063;-84
2024/01/31 08:39:52;;;;;;;8.38;3.70;;;;;;;4.94;100.00;103385.66;5075022;28;20075;-81
2024/01/31 08:42:17;;;;;;;5.07;3.47;;;;;;;4.99;100.00;103388.16;5094056;28;20104;-82
2024/01/31 08:44:44;;;;;;;6.20;4.03;;;;;;;5.01;100.00;103385.47;5093706;28;20063;-84
2024/01/31 08:47:10;;;;;;;9.13;3.85;;;;;;;5.04;100.00;103380.13;5075206;28;20035;-88
2024/01/31 08:49:35;;;;;;;10.07;4.30;;;;;;;5.09;100.00;103378.22;5058249;28;20123;-83
2024/01/31 08:52:01;;;;;;;11.30;4.57;;;;;;;5.08;100.00;103380.00;5074641;28;20036;-84
2024/01/31 08:54:26;;;;;;;7.60;4.43;;;;;;;5.14;100.00;103381.59;5075552;28;20457;-83
2024/01/31 08:56:51;;;;;;;8.85;4.90;;;;;;;5.19;100.00;103384.13;5075237;28;20036;-83
2024/01/31 08:59:18;;;;;;;10.50;5.00;;;;;;;5.22;100.00;103398.09;5093737;28;20054;-81
2024/01/31 09:01:44;;;;;;;12.05;5.68;;;;;;;5.25;100.00;103391.88;5099051;28;20130;-82
2024/01/31 09:04:12;;;;;;;9.23;5.45;;;;;;;5.26;100.00;103394.47;5099956;28;20036;-83
2024/01/31 09:06:40;;;;;;;10.98;6.30;;;;;;;5.27;100.00;103393.56;5095543;28;20132;-84
2024/01/31 09:09:06;;;;;;;12.02;6.18;;;;;;;5.33;100.00;103389.00;5092919;28;20032;-83
2024/01/31 09:11:32;;;;;;;12.15;6.35;;;;;;;5.34;100.00;103381.03;5092579;28;20046;-83
2024/01/31 09:13:57;;;;;;;15.40;7.05;;;;;;;5.35;100.00;103374.88;5092528;28;20036;-83
2024/01/31 09:16:23;;;;;;;12.38;7.38;;;;;;;5.35;100.00;103372.22;5093019;28;20050;-83
2024/01/31 09:18:49;;;;;;;14.73;7.97;;;;;;;5.35;100.00;103369.59;5074680;28;20147;-88
2024/01/31 09:21:23;;;;;;;17.27;6.90;;;;;;;5.36;100.00;103379.25;5057469;28;20544;-82
2024/01/31 09:23:49;;;;;;;17.40;7.07;;;;;;;5.39;100.00;103378.28;5074431;28;20047;-83
2024/01/31 09:26:15;;;;;;;12.10;6.85;;;;;;;5.38;100.00;103374.78;5092572;28;20368;-83
2024/01/31 09:28:41;;;;;;;21.17;7.32;;;;;;;5.40;100.00;103367.66;5092708;28;20118;-84
2024/01/31 09:31:06;;;;;;;17.67;7.45;;;;;;;5.42;100.00;103368.50;5075006;28;20364;-81
2024/01/31 09:33:32;;;;;;;11.70;7.28;;;;;;;5.43;100.00;103375.53;5058882;28;20046;-82
2024/01/31 09:35:57;;;;;;;15.43;7.03;;;;;;;5.44;100.00;103376.38;5093338;28;20393;-81
2024/01/31 09:38:25;;;;;;;16.92;7.63;;;;;;;5.46;100.00;103385.13;5092754;28;20444;-81
2024/01/31 09:40:51;;;;;;;15.20;7.97;;;;;;;5.46;100.00;103393.94;5093075;28;20032;-86
2024/01/31 09:43:17;;;;;;;20.73;8.13;;;;;;;5.51;100.00;103395.53;5075614;28;20400;-84
2024/01/31 09:45:43;;;;;;;15.18;8.32;;;;;;;5.49;100.00;103390.31;5075906;28;20058;-84
2024/01/31 09:48:12;;;;;;;19.92;8.23;;;;;;;5.52;100.00;103398.13;5093033;28;20036;-83
2024/01/31 09:50:37;;;;;;;15.68;7.40;;;;;;;5.53;100.00;103394.59;5092594;28;20032;-82
2024/01/31 09:53:04;;;;;;;16.35;7.80;;;;;;;5.53;100.00;103393.75;5074794;28;20397;-83
2024/01/31 09:55:30;;;;;;;17.13;8.48;;;;;;;5.52;100.00;103395.50;5093481;28;20028;-81
2024/01/31 09:57:56;;;;;;;12.63;7.57;;;;;;;5.52;100.00;103400.78;5093376;28;20032;-82
2024/01/31 10:00:22;;;;;;;13.07;7.72;;;;;;;5.56;100.00;103406.88;5075426;28;20119;-83
2024/01/31 10:02:49;;;;;;;18.63;8.18;;;;;;;5.56;100.00;103410.34;5093411;28;20032;-80
2024/01/31 10:05:14;;;;;;;16.23;8.70;;;;;;;5.58;100.00;103405.91;5078290;28;20097;-83
2024/01/31 10:07:40;;;;;;;15.18;8.50;;;;;;;5.60;100.00;103405.88;5096939;28;20020;-82
2024/01/31 10:10:06;;;;;;;19.70;9.07;;;;;;;5.61;100.00;103408.47;5096089;28;20043;-82
2024/01/31 10:12:31;;;;;;;19.63;8.80;;;;;;;5.62;100.00;103406.69;5096018;28;20031;-84
2024/01/31 10:14:57;;;;;;;13.40;8.52;;;;;;;5.64;100.00;103410.13;5096525;28;20032;-84
2024/01/31 10:17:23;;;;;;;14.48;9.48;;;;;;;5.63;100.00;103411.91;5061522;28;20032;-84
2024/01/31 10:19:49;;;;;;;20.77;10.32;;;;;;;5.64;100.00;103404.84;5078635;28;20020;-83
2024/01/31 10:22:15;;;;;;;17.42;9.82;;;;;;;5.64;100.00;103399.56;5096354;28;20046;-83
2024/01/31 10:24:45;;;;;;;16.83;9.90;;;;;;;5.68;100.00;103392.44;5097179;28;20059;-82
2024/01/31 10:27:11;;;;;;;24.48;11.27;;;;;;;5.68;100.00;103388.00;5096395;28;20031;-82
2024/01/31 10:29:40;;;;;;;19.52;11.25;;;;;;;5.73;100.00;103387.88;5095897;28;20032;-83
2024/01/31 10:32:06;;;;;;;23.55;12.50;;;;;;;5.72;100.00;103376.44;5078509;28;20472;-83
2024/01/31 10:34:33;;;;;;;20.08;12.05;;;;;;;5.78;100.00;103372.78;5095788;28;20115;-83
2024/01/31 10:37:00;;;;;;;26.15;11.73;;;;;;;5.74;100.00;103371.97;5077884;28;20189;-84
2024/01/31 10:39:27;;;;;;;23.70;12.63;;;;;;;5.76;100.00;103361.38;5095749;28;20032;-83
2024/01/31 10:41:54;;;;;;;32.67;11.75;;;;;;;5.78;100.00;103359.56;5078169;28;20499;-82
2024/01/31 10:44:21;;;;;;;25.33;12.00;;;;;;;5.79;100.00;103348.94;5096988;28;20479;-84
2024/01/31 10:46:46;;;;;;;21.60;11.43;;;;;;;5.82;100.00;103350.59;5078435;28;20381;-84
2024/01/31 10:49:13;;;;;;;19.40;11.30;;;;;;;5.83;100.00;103339.13;5096972;28;20042;-84
2024/01/31 10:51:39;;;;;;;22.17;11.70;;;;;;;5.82;100.00;103332.09;5096495;28;20040;-80
2024/01/31 10:54:07;;;;;;;21.63;12.10;;;;;;;5.84;100.00;103322.38;5078530;28;20353;-82
2024/01/31 10:56:34;;;;;;;22.20;11.55;;;;;;;5.93;100.00;103318.59;5096180;28;20032;-84
2024/01/31 10:59:00;;;;;;;21.05;11.77;;;;;;;5.98;100.00;103311.41;5096817;28;20040;-86
2024/01/31 11:01:32;;;;;;;22.77;11.25;;;;;;;6.05;100.00;103312.94;5079257;28;20028;-85
2024/01/31 11:03:57;;;;;;;22.50;11.50;;;;;;;6.10;100.00;103299.56;5096938;28;20062;-85
2024/01/31 11:06:26;;;;;;;20.95;11.52;;;;;;;6.07;100.00;103291.75;5062195;28;20367;-86
2024/01/31 11:08:52;;;;;;;19.73;11.52;;;;;;;6.09;100.00;103284.63;5096562;28;20115;-85
2024/01/31 11:11:18;;;;;;;20.02;10.68;;;;;;;6.10;100.00;103267.84;5078363;28;20574;-85
2024/01/31 11:13:43;;;;;;;17.30;10.77;;;;;;;6.14;100.00;103272.13;5078830;28;20032;-87
2024/01/31 11:16:09;;;;;;;19.33;10.85;;;;;;;6.22;100.00;103270.06;5043658;28;20106;-84